Time;durP1;ratioP1;P1;durP2;ratioP2;P2;SDS_P1;SDS_P2;PMS_P1;PMS_P2;Temp;Humidity;BMP_temperature;BMP_pressure;BME280_temperature;BME280_humidity;BME280_pressure;Samples;Min_cycle;Max_cycle;Signal;HPM_P1;HPM_P2
2022/10/03 00:00:13;;;;;;;5.55;2.75;;;;;;;11.91;100.00;100205.09;2761621;84;21057;-94
2022/10/03 00:04:48;;;;;;;8.98;2.55;;;;;;;11.86;100.00;100205.50;2793708;85;21051;-93
2022/10/03 00:09:02;;;;;;;20.62;4.17;;;;;;;11.88;100.00;100202.71;2721350;85;21058;-94
2022/10/03 00:13:30;;;;;;;10.10;3.98;;;;;;;11.73;100.00;100218.24;2792663;83;21066;-93
2022/10/03 00:17:53;;;;;;;5.80;2.08;;;;;;;11.57;100.00;100214.25;2805448;84;21039;-95
2022/10/03 00:22:21;;;;;;;6.35;2.55;;;;;;;11.60;100.00;100213.16;2789134;84;21036;-94
2022/10/03 00:26:31;;;;;;;3.95;1.98;;;;;;;11.61;100.00;100217.00;2804287;84;21000;-94
2022/10/03 00:31:00;;;;;;;5.10;2.80;;;;;;;11.62;100.00;100216.02;2775325;84;21109;-91
2022/10/03 00:35:30;;;;;;;4.62;2.52;;;;;;;11.64;100.00;100222.05;2780674;84;21047;-94
2022/10/03 00:39:43;;;;;;;26.52;4.17;;;;;;;11.50;100.00;100211.78;2799805;84;21024;-93
2022/10/03 00:44:29;;;;;;;6.83;3.12;;;;;;;11.42;100.00;100211.11;2786263;84;21666;-94
2022/10/03 00:49:00;;;;;;;8.60;3.87;;;;;;;11.33;100.00;100209.23;2711403;87;21030;-92
2022/10/03 00:53:43;;;;;;;6.25;2.58;;;;;;;11.35;100.00;100216.59;2717961;86;21154;-94
2022/10/03 00:58:16;;;;;;;10.05;3.15;;;;;;;11.39;100.00;100220.67;2710819;86;21058;-94
2022/10/03 01:02:58;;;;;;;8.50;3.37;;;;;;;11.46;100.00;100217.00;2731580;86;21040;-93
2022/10/03 01:07:24;;;;;;;9.48;3.42;;;;;;;11.55;100.00;100225.03;2704252;86;21054;-94
2022/10/03 01:11:42;;;;;;;7.22;2.92;;;;;;;11.60;100.00;100235.80;2713293;87;21414;-95
2022/10/03 01:16:01;;;;;;;4.80;2.42;;;;;;;11.65;100.00;100225.58;2700849;86;21113;-93
2022/10/03 01:20:27;;;;;;;10.72;3.27;;;;;;;11.68;100.00;100224.80;2647891;88;21107;-94
2022/10/03 01:24:58;;;;;;;8.78;2.60;;;;;;;11.74;100.00;100223.92;2691947;86;21017;-95
2022/10/03 01:34:37;;;;;;;6.47;2.85;;;;;;;11.74;100.00;100239.41;2781238;84;21039;-94
2022/10/03 01:38:58;;;;;;;9.30;4.20;;;;;;;11.77;100.00;100236.47;2791236;83;21431;-93
2022/10/03 01:43:12;;;;;;;19.30;4.97;;;;;;;11.85;100.00;100227.80;2793922;83;21065;-93
2022/10/03 01:47:27;;;;;;;8.10;3.65;;;;;;;11.79;100.00;100239.88;2799905;83;21515;-95
2022/10/03 01:51:50;;;;;;;10.45;4.00;;;;;;;11.86;100.00;100243.67;2734183;85;21529;-94
2022/10/03 01:56:12;;;;;;;6.72;3.40;;;;;;;11.85;100.00;100245.13;2790268;84;21093;-92
2022/10/03 02:00:24;;;;;;;16.97;4.78;;;;;;;11.89;100.00;100232.38;2784743;84;21085;-94
2022/10/03 02:05:12;;;;;;;7.17;3.98;;;;;;;11.87;100.00;100245.83;2771567;85;21023;-93
2022/10/03 02:09:35;;;;;;;17.87;4.17;;;;;;;11.94;100.00;100241.66;2785849;84;21065;-94
2022/10/03 02:14:00;;;;;;;9.43;4.30;;;;;;;11.89;100.00;100231.91;2774802;85;21013;-94
2022/10/03 02:18:12;;;;;;;19.45;4.62;;;;;;;11.86;100.00;100241.48;2777312;85;21108;-94
2022/10/03 02:22:35;;;;;;;9.45;3.98;;;;;;;11.88;100.00;100244.85;2763178;84;21017;-94
2022/10/03 02:27:30;;;;;;;9.53;3.72;;;;;;;11.84;100.00;100244.30;2802742;84;21113;-90
2022/10/03 02:32:07;;;;;;;6.72;3.47;;;;;;;11.79;100.00;100244.34;2788244;84;21089;-93
2022/10/03 02:36:21;;;;;;;;;;;;;;;11.76;100.00;100249.44;2770346;84;21108;-93
2022/10/03 02:41:05;;;;;;;18.40;4.78;;;;;;;11.78;100.00;100244.81;2776958;84;20117;-94
2022/10/03 02:45:39;;;;;;;7.83;4.67;;;;;;;11.85;100.00;100251.31;2777838;85;21081;-94
2022/10/03 02:50:01;;;;;;;11.10;5.47;;;;;;;11.78;100.00;100248.81;2787346;84;21097;-94
2022/10/03 02:54:24;;;;;;;9.23;3.85;;;;;;;11.82;100.00;100259.58;2738572;86;21023;-95
2022/10/03 02:58:39;;;;;;;10.30;4.58;;;;;;;11.83;100.00;100259.94;2627082;88;21060;-93
2022/10/03 03:03:03;;;;;;;16.60;5.17;;;;;;;11.89;100.00;100253.70;2627518;89;21065;-92
2022/10/03 03:07:48;;;;;;;12.95;4.87;;;;;;;11.89;100.00;100258.56;2605785;90;21026;-92
2022/10/03 03:12:41;;;;;;;13.85;5.45;;;;;;;11.90;100.00;100258.05;2593878;89;21106;-93
2022/10/03 03:17:07;;;;;;;12.07;4.67;;;;;;;11.83;100.00;100255.94;2619944;89;21765;-92
2022/10/03 03:21:35;;;;;;;4.40;3.00;;;;;;;11.80;100.00;100260.21;2616479;89;21106;-92
2022/10/03 03:26:12;;;;;;;11.08;4.45;;;;;;;11.75;100.00;100247.75;2620428;89;21422;-92
2022/10/03 03:30:22;;;;;;;10.88;5.00;;;;;;;11.71;100.00;100265.00;2591009;89;21578;-91
2022/10/03 03:34:38;;;;;;;10.72;4.10;;;;;;;11.77;100.00;100258.30;2657251;87;21672;-91
2022/10/03 03:39:35;;;;;;;8.80;4.55;;;;;;;11.75;100.00;100274.91;2663979;87;21631;-91
2022/10/03 03:44:05;;;;;;;13.77;5.37;;;;;;;11.84;100.00;100272.28;2745402;84;21091;-93
2022/10/03 03:48:12;;;;;;;7.87;3.37;;;;;;;11.89;100.00;100274.55;2747328;84;21081;-92
2022/10/03 03:52:28;;;;;;;9.88;4.47;;;;;;;11.91;100.00;100274.40;2755951;85;21271;-92
2022/10/03 03:57:00;;;;;;;13.05;4.40;;;;;;;11.96;100.00;100270.83;2782186;84;21057;-91
2022/10/03 04:01:32;;;;;;;8.98;4.35;;;;;;;11.86;100.00;100274.32;2784815;84;21067;-95
2022/10/03 04:06:02;;;;;;;7.45;4.03;;;;;;;11.89;100.00;100282.55;2798410;84;21059;-95
2022/10/03 04:10:24;;;;;;;6.30;4.08;;;;;;;11.87;100.00;100271.15;2786061;84;21047;-92
2022/10/03 04:14:36;;;;;;;15.38;4.95;;;;;;;11.87;100.00;100291.14;2804542;84;21043;-93
2022/10/03 04:19:06;;;;;;;10.93;3.92;;;;;;;11.80;100.00;100297.52;2754956;85;21547;-93
2022/10/03 04:23:22;;;;;;;11.65;4.28;;;;;;;11.83;100.00;100279.92;2771244;84;21054;-92
2022/10/03 04:27:51;;;;;;;6.87;2.58;;;;;;;11.90;100.00;100282.91;2783025;84;21000;-91
2022/10/03 04:32:06;;;;;;;8.40;4.60;;;;;;;11.88;100.00;100286.67;2697050;86;21107;-92
2022/10/03 04:36:45;;;;;;;19.30;5.25;;;;;;;11.86;100.00;100283.66;2712022;86;21243;-94
2022/10/03 04:41:00;;;;;;;10.98;3.87;;;;;;;11.81;100.00;100275.70;2712915;85;21084;-93
2022/10/03 04:45:28;;;;;;;8.55;3.87;;;;;;;11.82;100.00;100275.58;2721238;85;21074;-96
2022/10/03 04:49:38;;;;;;;9.60;3.65;;;;;;;11.86;100.00;100274.32;2721310;86;21084;-94
2022/10/03 04:53:50;;;;;;;16.62;3.80;;;;;;;11.79;100.00;100285.17;2677949;86;21113;-93
2022/10/03 04:58:05;;;;;;;13.15;4.55;;;;;;;11.81;100.00;100294.35;2680388;87;21558;-93
2022/10/03 05:02:52;;;;;;;9.90;3.90;;;;;;;11.78;100.00;100295.45;2630357;88;21049;-94
2022/10/03 05:07:07;;;;;;;6.77;2.87;;;;;;;11.80;100.00;100301.52;2678122;87;21035;-95
2022/10/03 05:11:51;;;;;;;6.57;4.00;;;;;;;11.77;100.00;100302.27;2700176;86;21047;-95
2022/10/03 05:16:09;;;;;;;6.70;4.35;;;;;;;11.72;100.00;100309.31;2708592;86;21087;-92
2022/10/03 05:20:39;;;;;;;7.12;3.35;;;;;;;11.60;100.00;100306.40;2710101;86;21197;-94
2022/10/03 05:24:55;;;;;;;9.55;3.95;;;;;;;11.60;100.00;100310.39;2755637;84;21031;-93
2022/10/03 05:29:24;;;;;;;9.87;2.70;;;;;;;11.65;100.00;100298.84;2747540;84;21088;-93
2022/10/03 05:33:54;;;;;;;8.03;3.30;;;;;;;11.58;100.00;100314.00;2750184;84;21049;-94
2022/10/03 05:38:27;;;;;;;7.28;2.85;;;;;;;11.67;100.00;100316.37;2731686;85;21104;-91
2022/10/03 05:42:51;;;;;;;7.90;2.70;;;;;;;11.69;100.00;100289.60;2729944;85;21089;-94
2022/10/03 05:47:43;;;;;;;8.10;3.22;;;;;;;11.70;100.00;100315.27;2734380;85;21026;-94
2022/10/03 05:52:08;;;;;;;2.83;2.02;;;;;;;11.75;100.00;100305.55;2735831;85;21078;-94
2022/10/03 05:56:31;;;;;;;11.90;3.87;;;;;;;11.80;100.00;100318.84;2727384;85;21025;-94
2022/10/03 06:01:16;;;;;;;15.68;2.58;;;;;;;11.75;100.00;100330.36;2728512;86;21087;-92
2022/10/03 06:05:45;;;;;;;5.17;2.67;;;;;;;11.79;100.00;100338.48;2729832;85;21038;-93
2022/10/03 06:10:07;;;;;;;9.48;3.80;;;;;;;11.70;100.00;100333.92;2729530;87;21616;-94
2022/10/03 06:14:35;;;;;;;13.90;2.70;;;;;;;11.67;100.00;100347.52;2755714;85;21093;-93
2022/10/03 06:18:58;;;;;;;4.62;3.47;;;;;;;11.55;100.00;100351.57;2732846;85;21147;-92
2022/10/03 06:23:27;;;;;;;15.25;3.58;;;;;;;11.58;100.00;100364.62;2740910;85;21595;-94
2022/10/03 06:28:07;;;;;;;5.33;2.37;;;;;;;11.58;100.00;100351.81;2690469;86;21035;-94
2022/10/03 06:32:50;;;;;;;5.08;2.20;;;;;;;11.47;100.00;100343.40;2685635;86;21062;-94
2022/10/03 06:37:23;;;;;;;6.75;3.08;;;;;;;11.54;100.00;100353.88;2640991;88;21088;-93
2022/10/03 06:41:53;;;;;;;9.70;4.37;;;;;;;11.69;100.00;100356.22;2640851;88;21025;-94
2022/10/03 06:46:30;;;;;;;6.90;3.25;;;;;;;11.74;100.00;100351.83;2642917;88;21120;-92
2022/10/03 06:50:38;;;;;;;;;;;;;;;11.67;100.00;100359.50;2640421;88;21068;-93
2022/10/03 06:55:09;;;;;;;8.00;3.25;;;;;;;11.78;100.00;100365.25;2641634;88;20126;-94
2022/10/03 06:59:27;;;;;;;5.05;3.55;;;;;;;11.84;100.00;100371.37;2653042;87;21035;-92
2022/10/03 07:04:07;;;;;;;5.65;2.25;;;;;;;11.87;100.00;100365.77;2713575;85;21624;-93
2022/10/03 07:08:51;;;;;;;4.80;1.92;;;;;;;11.99;100.00;100359.89;2754409;85;21553;-92
2022/10/03 07:13:18;;;;;;;11.25;4.33;;;;;;;12.09;100.00;100371.46;2749923;85;21077;-93
2022/10/03 07:18:17;;;;;;;9.90;2.58;;;;;;;12.00;100.00;100385.57;2748694;85;21099;-91
2022/10/03 07:22:51;;;;;;;6.22;2.65;;;;;;;12.04;100.00;100381.69;2739745;86;21042;-93
2022/10/03 07:27:15;;;;;;;8.95;2.50;;;;;;;12.16;100.00;100379.77;2768326;85;21128;-94
2022/10/03 07:31:40;;;;;;;3.10;1.92;;;;;;;12.07;100.00;100394.75;2746377;85;21039;-93
2022/10/03 07:41:34;;;;;;;3.72;2.27;;;;;;;12.21;100.00;100390.88;2740410;85;21112;-95
2022/10/03 07:45:59;;;;;;;4.05;2.47;;;;;;;12.39;100.00;100388.44;2771473;84;21704;-92
2022/10/03 07:50:43;;;;;;;5.28;1.80;;;;;;;12.32;100.00;100387.77;2788176;85;21049;-94
2022/10/03 07:55:08;;;;;;;3.05;1.90;;;;;;;12.37;100.00;100397.03;2789988;85;20993;-93
2022/10/03 07:59:21;;;;;;;4.60;2.20;;;;;;;12.40;100.00;100406.60;2790063;85;21021;-92
2022/10/03 08:03:54;;;;;;;7.25;2.85;;;;;;;12.47;100.00;100405.58;2786902;83;21616;-94
2022/10/03 08:08:37;;;;;;;2.60;1.57;;;;;;;12.66;100.00;100416.78;2785331;83;21597;-94
2022/10/03 08:13:03;;;;;;;6.95;2.20;;;;;;;12.65;100.00;100410.63;2789703;85;20998;-94
2022/10/03 08:17:40;;;;;;;3.45;1.45;;;;;;;12.69;100.00;100419.20;2788299;85;21045;-94
2022/10/03 08:22:12;;;;;;;10.32;2.85;;;;;;;12.77;100.00;100408.68;2786758;85;21055;-94
2022/10/03 08:26:54;;;;;;;11.05;1.85;;;;;;;12.95;100.00;100420.85;2792684;84;21761;-95
2022/10/03 08:31:31;;;;;;;3.12;1.50;;;;;;;12.88;100.00;100413.05;2787221;84;21033;-93
2022/10/03 08:35:51;;;;;;;3.02;1.37;;;;;;;13.22;100.00;100415.83;2805010;83;21060;-95
2022/10/03 08:40:36;;;;;;;6.00;1.22;;;;;;;13.37;100.00;100418.95;2750555;84;21063;-90
2022/10/03 08:44:49;;;;;;;4.03;1.20;;;;;;;13.35;100.00;100420.88;2781627;85;21527;-94
2022/10/03 08:49:18;;;;;;;2.95;1.15;;;;;;;13.18;100.00;100412.61;2762729;85;21017;-93
2022/10/03 08:54:03;;;;;;;3.12;1.20;;;;;;;13.19;100.00;100418.78;2770400;85;21595;-93
2022/10/03 08:58:19;;;;;;;5.55;1.37;;;;;;;13.17;100.00;100422.09;2783613;84;21081;-94
2022/10/03 09:02:45;;;;;;;4.53;2.03;;;;;;;13.40;100.00;100422.16;2788928;84;21096;-94
2022/10/03 09:07:10;;;;;;;1.72;1.57;;;;;;;13.55;100.00;100419.92;2787257;85;20997;-95
2022/10/03 09:11:50;;;;;;;12.58;2.30;;;;;;;13.78;100.00;100432.14;2779741;84;21029;-93
2022/10/03 09:16:36;;;;;;;2.42;1.02;;;;;;;13.58;100.00;100433.51;2790644;84;21045;-94
2022/10/03 09:21:23;;;;;;;3.60;2.40;;;;;;;13.53;100.00;100433.92;2781655;84;21543;-92
2022/10/03 09:26:20;;;;;;;1.82;0.98;;;;;;;13.45;100.00;100444.97;2764332;85;21083;-93
2022/10/03 09:30:39;;;;;;;3.00;1.75;;;;;;;13.37;100.00;100445.66;2727154;85;21065;-94
2022/10/03 09:35:14;;;;;;;3.72;1.27;;;;;;;13.34;100.00;100459.27;2746579;85;21073;-95
2022/10/03 09:40:11;;;;;;;1.60;0.82;;;;;;;13.33;100.00;100465.60;2734704;86;21093;-94
2022/10/03 09:44:37;;;;;;;2.95;1.90;;;;;;;13.35;100.00;100462.30;2736157;86;21038;-94
2022/10/03 09:49:02;;;;;;;4.80;2.35;;;;;;;13.37;100.00;100469.70;2734645;86;21057;-94
2022/10/03 09:53:42;;;;;;;3.42;1.05;;;;;;;13.36;100.00;100465.32;2728126;86;21033;-93
2022/10/03 09:58:22;;;;;;;2.22;1.55;;;;;;;13.32;100.00;100482.62;2728588;87;21058;-95
2022/10/03 10:02:38;;;;;;;8.60;1.92;;;;;;;13.22;100.00;100495.48;2733556;86;21111;-94
2022/10/03 10:07:27;;;;;;;4.37;2.15;;;;;;;13.24;100.00;100491.32;2715713;86;21030;-94
2022/10/03 10:11:42;;;;;;;4.33;2.40;;;;;;;13.31;100.00;100488.47;2739257;86;21032;-92
2022/10/03 10:16:08;;;;;;;5.62;2.15;;;;;;;13.47;100.00;100491.13;2756943;86;21045;-95
2022/10/03 10:20:47;;;;;;;1.87;1.27;;;;;;;13.65;100.00;100477.37;2709135;85;21682;-94
2022/10/03 10:25:28;;;;;;;2.12;1.15;;;;;;;13.71;100.00;100475.50;2728660;84;21060;-95
2022/10/03 10:29:55;;;;;;;4.90;1.92;;;;;;;13.71;100.00;100475.50;2724885;83;21079;-95
2022/10/03 10:34:23;;;;;;;;;;;;;;;13.89;100.00;100478.80;2727547;86;21020;-93
2022/10/03 10:38:36;;;;;;;2.95;1.37;;;;;;;13.92;100.00;100474.97;2739686;86;20185;-94
2022/10/03 10:43:09;;;;;;;2.62;1.92;;;;;;;13.95;100.00;100462.16;2735223;86;21119;-93
2022/10/03 10:47:33;;;;;;;2.17;1.80;;;;;;;14.00;100.00;100487.98;2737093;86;21031;-93
2022/10/03 10:51:52;;;;;;;5.28;1.55;;;;;;;14.03;100.00;100484.19;2734669;85;21073;-94
2022/10/03 10:56:16;;;;;;;25.97;2.55;;;;;;;14.16;100.00;100477.69;2708756;86;21099;-91
2022/10/03 11:00:58;;;;;;;7.45;2.15;;;;;;;14.28;100.00;100477.37;2727970;87;21056;-94
2022/10/03 11:05:43;;;;;;;8.68;2.65;;;;;;;14.34;99.35;100481.78;2731252;86;21017;-92
2022/10/03 11:10:16;;;;;;;4.05;2.33;;;;;;;14.18;100.00;100459.66;2725544;85;21088;-94
2022/10/03 11:14:54;;;;;;;2.90;1.98;;;;;;;14.08;100.00;100484.59;2614372;90;21039;-94
2022/10/03 11:19:18;;;;;;;4.35;1.70;;;;;;;13.90;100.00;100456.89;2535871;92;21140;-89
2022/10/03 11:24:07;;;;;;;4.10;1.27;;;;;;;13.88;100.00;100478.44;2565017;91;21190;-93
2022/10/03 11:28:32;;;;;;;5.28;1.87;;;;;;;13.74;100.00;100473.52;2542289;91;21056;-94
2022/10/03 11:32:54;;;;;;;4.03;1.47;;;;;;;13.75;100.00;100492.08;2552339;91;21075;-94
2022/10/03 11:37:29;;;;;;;7.17;2.58;;;;;;;13.72;100.00;100480.34;2561870;91;21091;-93
2022/10/03 11:41:48;;;;;;;4.40;1.82;;;;;;;13.61;100.00;100484.52;2568494;92;21036;-94
2022/10/03 11:45:54;;;;;;;4.15;1.87;;;;;;;13.49;100.00;100487.30;2559012;92;21084;-92
2022/10/03 11:50:32;;;;;;;5.60;2.27;;;;;;;13.38;100.00;100474.89;2581644;90;21577;-92
2022/10/03 11:54:41;;;;;;;4.62;2.15;;;;;;;13.47;100.00;100503.97;2582308;88;21085;-92
2022/10/03 11:58:59;;;;;;;6.55;2.55;;;;;;;13.62;100.00;100492.37;2660100;87;21239;-94
2022/10/03 12:03:19;;;;;;;5.20;1.85;;;;;;;13.81;100.00;100510.25;2659598;87;21029;-94
2022/10/03 12:12:41;;;;;;;3.35;1.87;;;;;;;13.84;100.00;100468.52;2562322;89;21092;-93
2022/10/03 12:17:04;;;;;;;6.90;2.05;;;;;;;13.88;100.00;100511.01;2560013;91;21120;-93
2022/10/03 12:21:21;;;;;;;2.80;1.35;;;;;;;13.96;100.00;100513.33;2568044;90;21181;-93
2022/10/03 12:25:33;;;;;;;9.30;2.75;;;;;;;13.94;100.00;100529.15;2563896;91;21051;-94
2022/10/03 12:29:39;;;;;;;5.20;1.90;;;;;;;14.06;100.00;100519.17;2647094;86;21125;-95
2022/10/03 12:33:49;;;;;;;5.08;2.55;;;;;;;14.07;100.00;100549.77;2662357;88;21062;-94
2022/10/03 12:38:22;;;;;;;3.75;1.92;;;;;;;14.19;100.00;100500.14;2672799;86;21090;-93
2022/10/03 12:42:37;;;;;;;5.05;2.30;;;;;;;14.04;100.00;100517.97;2657346;87;21074;-94
2022/10/03 12:47:04;;;;;;;9.85;3.05;;;;;;;14.01;100.00;100531.63;2768745;84;21009;-94
2022/10/03 12:51:13;;;;;;;5.50;1.67;;;;;;;14.06;100.00;100532.03;2771807;85;21053;-93
2022/10/03 12:55:29;;;;;;;4.75;2.33;;;;;;;14.17;98.60;100520.84;2800048;83;21045;-92
2022/10/03 12:59:54;;;;;;;5.28;2.70;;;;;;;14.13;98.16;100527.79;2790862;84;21100;-95
2022/10/03 13:04:21;;;;;;;5.85;3.17;;;;;;;14.21;100.00;100530.27;2795469;84;21008;-94
2022/10/03 13:08:37;;;;;;;6.90;1.87;;;;;;;14.33;100.00;100530.43;2776304;84;21046;-92
2022/10/03 13:13:02;;;;;;;7.37;2.22;;;;;;;14.36;98.26;100529.31;2794198;85;21009;-94
2022/10/03 13:17:45;;;;;;;4.22;1.75;;;;;;;14.51;100.00;100527.00;2766953;84;21081;-94
2022/10/03 13:22:05;;;;;;;7.03;2.08;;;;;;;14.53;95.71;100524.55;2779102;83;21086;-96
2022/10/03 13:26:38;;;;;;;3.87;2.85;;;;;;;14.81;94.91;100522.43;2795449;83;21079;-94
2022/10/03 13:30:57;;;;;;;5.55;2.20;;;;;;;14.75;92.41;100535.91;2795022;83;20993;-92
2022/10/03 13:39:51;;;;;;;6.33;1.87;;;;;;;14.77;93.56;100528.56;2790474;85;21017;-90
2022/10/03 13:44:22;;;;;;;4.10;1.65;;;;;;;14.77;95.99;100525.06;2784643;84;20986;-95
2022/10/03 13:48:26;;;;;;;8.15;1.80;;;;;;;14.78;95.95;100516.03;2792249;84;21081;-95
2022/10/03 13:52:38;;;;;;;5.67;2.55;;;;;;;14.88;98.67;100527.53;2765843;85;21065;-94
2022/10/03 13:56:53;;;;;;;8.10;2.58;;;;;;;15.03;97.68;100519.01;2772079;84;21041;-93
2022/10/03 14:01:23;;;;;;;6.83;2.25;;;;;;;15.02;95.26;100526.70;2780887;84;21029;-95
2022/10/03 14:05:42;;;;;;;4.30;2.17;;;;;;;15.27;97.16;100496.50;2786918;83;21132;-95
2022/10/03 14:10:09;;;;;;;5.50;1.95;;;;;;;15.39;92.28;100511.03;2765812;84;21053;-93
2022/10/03 14:14:18;;;;;;;7.55;2.02;;;;;;;15.43;89.50;100509.73;2777414;84;21679;-96
2022/10/03 14:18:45;;;;;;;6.35;2.42;;;;;;;15.20;89.57;100502.61;2788032;83;21022;-94
2022/10/03 14:23:21;;;;;;;7.50;2.87;;;;;;;15.10;91.79;100506.69;2792998;84;21033;-95
2022/10/03 14:27:38;;;;;;;;;;;;;;;14.94;93.47;100516.73;2683941;86;21073;-92
2022/10/03 14:31:57;;;;;;;14.70;4.67;;;;;;;15.04;92.33;100532.75;2676054;86;20147;-94
2022/10/03 14:36:09;;;;;;;9.83;2.45;;;;;;;15.09;88.88;100535.81;2671858;86;21041;-93
2022/10/03 14:40:22;;;;;;;5.47;3.05;;;;;;;14.95;88.37;100523.28;2712554;86;21061;-96
2022/10/03 14:44:41;;;;;;;5.85;2.30;;;;;;;14.94;91.28;100519.41;2686061;86;21092;-96
2022/10/03 14:48:48;;;;;;;8.48;2.37;;;;;;;14.75;90.39;100521.69;2713868;86;21002;-93
2022/10/03 14:53:06;;;;;;;7.70;2.42;;;;;;;14.62;93.56;100534.01;2715852;86;21116;-95
2022/10/03 14:57:38;;;;;;;9.90;3.62;;;;;;;14.52;92.36;100538.91;2709021;86;21682;-95
2022/10/03 15:01:48;;;;;;;6.65;3.10;;;;;;;14.48;93.25;100525.96;2697698;84;21650;-89
2022/10/03 15:06:13;;;;;;;11.22;3.95;;;;;;;14.35;93.50;100535.65;2798425;83;21065;-92
2022/10/03 15:10:23;;;;;;;8.58;3.52;;;;;;;14.33;94.30;100545.66;2804429;83;21041;-93
2022/10/03 15:14:28;;;;;;;5.28;2.10;;;;;;;14.33;93.46;100548.33;2773326;84;21089;-96
2022/10/03 15:18:30;;;;;;;7.12;4.25;;;;;;;14.29;94.95;100554.45;2758129;84;21048;-95
2022/10/03 15:22:39;;;;;;;13.48;3.17;;;;;;;14.24;94.07;100552.20;2771504;83;21346;-90
2022/10/03 15:26:42;;;;;;;6.95;3.17;;;;;;;14.26;94.97;100539.55;2754115;84;21060;-91
2022/10/03 15:30:45;;;;;;;14.00;4.45;;;;;;;14.36;96.56;100554.25;2775389;83;21059;-89
2022/10/03 15:34:48;;;;;;;7.00;4.50;;;;;;;14.40;94.24;100554.30;2806735;83;21107;-91
2022/10/03 15:38:54;;;;;;;15.45;4.05;;;;;;;14.43;93.20;100552.67;2755874;84;21067;-91
2022/10/03 15:43:34;;;;;;;15.70;4.55;;;;;;;14.40;94.09;100551.63;2731820;85;21171;-90
2022/10/03 15:47:40;;;;;;;8.18;3.30;;;;;;;14.38;93.33;100533.54;2740008;85;21128;-90
2022/10/03 15:51:42;;;;;;;;;;;;;;;14.43;95.11;100554.02;2805062;83;21045;-91
2022/10/03 15:56:09;;;;;;;9.63;4.67;;;;;;;14.40;95.51;100546.28;2797984;83;20478;-91
2022/10/03 16:00:24;;;;;;;15.40;4.05;;;;;;;14.33;94.84;100551.01;2797035;83;21088;-91
2022/10/03 16:04:33;;;;;;;15.45;4.25;;;;;;;14.17;95.71;100548.93;2777578;84;21046;-91
2022/10/03 16:08:42;;;;;;;5.70;2.70;;;;;;;13.96;96.67;100561.97;2736133;85;21098;-90
2022/10/03 16:12:57;;;;;;;6.90;4.05;;;;;;;13.77;97.71;100562.80;2743990;85;21047;-90
2022/10/03 16:17:04;;;;;;;8.08;3.75;;;;;;;13.69;98.86;100566.16;2753867;85;21043;-91
2022/10/03 16:21:06;;;;;;;14.60;4.85;;;;;;;13.48;99.85;100572.47;2748601;86;21233;-90
2022/10/03 16:25:30;;;;;;;13.38;4.53;;;;;;;13.38;100.00;100574.27;2746027;86;21045;-91
2022/10/03 16:29:35;;;;;;;7.10;4.30;;;;;;;13.26;100.00;100570.35;2742585;85;21079;-91
2022/10/03 16:33:50;;;;;;;17.70;4.75;;;;;;;13.17;100.00;100569.84;2754643;85;21053;-92
2022/10/03 16:37:53;;;;;;;9.00;4.92;;;;;;;13.28;100.00;100571.05;2786491;84;21040;-91
2022/10/03 16:41:55;;;;;;;16.05;5.15;;;;;;;13.43;99.45;100580.89;2788494;84;21151;-91
2022/10/03 16:46:04;;;;;;;23.10;9.15;;;;;;;13.42;100.00;100582.34;2794541;84;21136;-91
2022/10/03 16:50:24;;;;;;;14.58;7.05;;;;;;;13.46;100.00;100567.76;2787462;84;21048;-92
2022/10/03 16:54:27;;;;;;;9.25;6.60;;;;;;;13.29;100.00;100564.73;2740065;85;21151;-91
2022/10/03 16:58:32;;;;;;;11.08;4.67;;;;;;;13.11;100.00;100562.36;2725111;85;21096;-92
2022/10/03 17:02:37;;;;;;;9.30;3.47;;;;;;;12.89;100.00;100570.92;2760118;85;21033;-88
2022/10/03 17:06:39;;;;;;;11.57;4.47;;;;;;;12.76;100.00;100565.81;2770698;84;21046;-90
2022/10/03 17:10:42;;;;;;;8.13;4.55;;;;;;;12.67;100.00;100566.12;2755427;85;21049;-91
2022/10/03 17:14:44;;;;;;;15.23;6.50;;;;;;;12.62;100.00;100575.49;2752974;83;21051;-91
2022/10/03 17:19:09;;;;;;;7.60;4.47;;;;;;;12.63;100.00;100575.38;2785974;84;21560;-91
2022/10/03 17:23:36;;;;;;;8.63;4.83;;;;;;;12.73;100.00;100562.55;2707124;86;21039;-91
2022/10/03 17:27:40;;;;;;;12.23;4.53;;;;;;;12.77;100.00;100569.31;2729974;85;21667;-90
2022/10/03 17:32:01;;;;;;;5.80;4.03;;;;;;;12.83;100.00;100566.95;2731190;85;21539;-91
2022/10/03 17:36:40;;;;;;;4.95;2.87;;;;;;;12.94;100.00;100570.53;2747748;85;21047;-91
2022/10/03 17:41:09;;;;;;;5.40;2.90;;;;;;;12.98;100.00;100574.61;2695101;85;21082;-91
2022/10/03 17:45:33;;;;;;;8.30;4.17;;;;;;;12.99;100.00;100563.81;2745995;85;21054;-91
2022/10/03 17:50:06;;;;;;;7.03;3.20;;;;;;;13.06;100.00;100564.09;2652590;87;21121;-92
2022/10/03 17:54:15;;;;;;;8.70;3.50;;;;;;;13.09;100.00;100565.66;2716964;86;21120;-92
2022/10/03 17:58:21;;;;;;;10.45;4.25;;;;;;;13.06;100.00;100561.92;2712699;86;21054;-92
2022/10/03 18:02:51;;;;;;;12.68;3.55;;;;;;;13.07;100.00;100566.28;2666304;88;28251;-91
2022/10/03 18:07:12;;;;;;;5.35;3.77;;;;;;;12.99;100.00;100566.48;2722073;87;21111;-92
2022/10/03 18:11:27;;;;;;;10.93;4.78;;;;;;;13.07;100.00;100566.28;2666523;88;21153;-91
2022/10/03 18:15:49;;;;;;;10.38;3.58;;;;;;;12.96;100.00;100586.75;2714440;86;21157;-91
2022/10/03 18:20:30;;;;;;;8.90;3.35;;;;;;;12.91;100.00;100580.14;2690950;87;21019;-90
2022/10/03 18:29:49;;;;;;;5.05;2.47;;;;;;;12.69;100.00;100572.67;2724719;86;21027;-91
2022/10/03 18:33:58;;;;;;;4.67;2.25;;;;;;;12.78;100.00;100567.03;2697168;86;21069;-91
2022/10/03 18:38:08;;;;;;;5.17;3.50;;;;;;;12.79;100.00;100572.21;2705042;87;21143;-91
2022/10/03 18:42:14;;;;;;;8.18;4.78;;;;;;;12.70;100.00;100571.19;2681852;87;21648;-91
2022/10/03 18:46:40;;;;;;;9.13;3.77;;;;;;;12.71;100.00;100574.72;2675518;88;21572;-91
2022/10/03 18:50:59;;;;;;;4.85;2.75;;;;;;;12.70;100.00;100573.03;2660893;88;21055;-91
2022/10/03 18:55:26;;;;;;;11.95;4.78;;;;;;;12.66;100.00;100581.77;2673736;88;21086;-92
2022/10/03 19:00:08;;;;;;;10.75;6.12;;;;;;;12.75;100.00;100593.95;2677738;88;21079;-91
2022/10/03 19:04:19;;;;;;;13.32;6.42;;;;;;;12.72;100.00;100587.08;2691844;86;21091;-92
2022/10/03 19:08:35;;;;;;;6.65;4.28;;;;;;;12.74;100.00;100581.12;2776221;84;21600;-92
2022/10/03 19:12:42;;;;;;;9.37;2.57;;;;;;;12.68;100.00;100589.66;2706621;85;21069;-92
2022/10/03 19:16:57;;;;;;;5.20;2.50;;;;;;;12.64;100.00;100569.53;2749233;84;21036;-91
2022/10/03 19:21:03;;;;;;;4.60;2.80;;;;;;;12.61;100.00;100574.66;2746619;85;21052;-92
2022/10/03 19:25:06;;;;;;;;;;;;;;;12.53;100.00;100577.98;2765969;85;21124;-90
2022/10/03 19:29:21;;;;;;;9.78;5.60;;;;;;;12.57;100.00;100574.55;2699693;87;20163;-93
2022/10/03 19:33:26;;;;;;;4.05;3.10;;;;;;;12.59;100.00;100561.95;2740357;85;21017;-92
2022/10/03 19:37:46;;;;;;;5.25;2.70;;;;;;;12.55;100.00;100560.49;2747268;84;21196;-95
2022/10/03 19:42:20;;;;;;;5.90;2.17;;;;;;;12.61;100.00;100559.98;2761832;84;21104;-91
2022/10/03 19:46:56;;;;;;;14.23;2.77;;;;;;;12.71;100.00;100560.03;2765136;86;21576;-95
2022/10/03 19:51:08;;;;;;;7.92;2.55;;;;;;;12.81;100.00;100573.42;2765121;86;21157;-93
2022/10/03 19:55:29;;;;;;;5.42;3.25;;;;;;;12.71;100.00;100560.86;2736946;84;21068;-92
2022/10/03 19:59:46;;;;;;;6.58;4.28;;;;;;;12.71;100.00;100578.21;2765499;84;21115;-95
2022/10/03 20:03:53;;;;;;;11.57;6.83;;;;;;;12.71;100.00;100574.20;2765088;84;21056;-96
2022/10/03 20:08:21;;;;;;;15.00;6.00;;;;;;;12.73;100.00;100571.89;2763652;84;21790;-96
2022/10/03 20:12:29;;;;;;;9.23;4.95;;;;;;;12.81;100.00;100574.77;2763829;84;21526;-94
2022/10/03 20:16:35;;;;;;;7.45;3.72;;;;;;;12.76;100.00;100576.96;2751640;84;21101;-95
2022/10/03 20:20:37;;;;;;;6.27;3.07;;;;;;;12.77;100.00;100581.32;2761625;86;21065;-93
2022/10/03 20:24:44;;;;;;;8.55;4.72;;;;;;;12.79;100.00;100578.06;2764880;84;21036;-91
2022/10/03 20:28:54;;;;;;;14.03;7.55;;;;;;;12.70;100.00;100579.19;2762928;84;21533;-96
2022/10/03 20:32:57;;;;;;;18.07;9.48;;;;;;;12.67;100.00;100570.13;2765387;84;21048;-95